createdAt,value
2022-12-02T00:04:26.363Z,77.15
2022-12-02T00:09:37.829Z,76.97
2022-12-02T00:14:45.662Z,77.05
2022-12-02T00:19:51.977Z,76.83
2022-12-02T00:24:59.657Z,76.97
2022-12-02T00:30:06.653Z,76.77
2022-12-02T00:35:13.065Z,77.08
2022-12-02T00:40:21.022Z,77.13
2022-12-02T00:45:44.709Z,76.55
2022-12-02T00:50:51.282Z,77.04
2022-12-02T00:55:58.992Z,77.32
2022-12-02T01:01:05.538Z,77.28
2022-12-02T01:06:12.161Z,77.14
2022-12-02T01:11:20.099Z,77.50
2022-12-02T01:16:26.318Z,77.23
2022-12-02T01:21:32.687Z,77.50
2022-12-02T01:26:40.651Z,77.01
2022-12-02T01:31:46.898Z,76.90
2022-12-02T01:36:53.015Z,76.32
2022-12-02T01:42:02.126Z,76.40
2022-12-02T01:47:08.735Z,76.53
2022-12-02T01:52:15.142Z,76.06
2022-12-02T01:57:28.769Z,76.19
2022-12-02T02:02:37.216Z,76.02
2022-12-02T02:07:46.214Z,75.68
2022-12-02T02:12:54.357Z,76.53
2022-12-02T02:18:05.160Z,76.57
2022-12-02T02:23:22.536Z,76.90
2022-12-02T02:28:29.671Z,76.72
2022-12-02T02:33:37.041Z,76.75
2022-12-02T02:38:44.920Z,76.93
2022-12-02T02:43:51.498Z,77.03
2022-12-02T02:48:57.825Z,76.43
2022-12-02T02:54:05.653Z,76.12
2022-12-02T02:59:15.836Z,76.06
2022-12-02T03:04:26.008Z,75.43
2022-12-02T03:09:33.750Z,75.91
2022-12-02T03:14:40.307Z,75.90
2022-12-02T03:19:47.098Z,76.02
2022-12-02T03:24:54.829Z,74.96
2022-12-02T03:30:01.480Z,75.24
2022-12-02T03:35:11.157Z,75.70
2022-12-02T03:40:19.100Z,75.83
2022-12-02T03:45:26.919Z,75.61
2022-12-02T03:50:32.993Z,75.59
2022-12-02T03:55:40.540Z,75.31
2022-12-02T04:00:46.748Z,75.69
2022-12-02T04:05:52.724Z,75.81
2022-12-02T04:11:00.886Z,75.65
2022-12-02T04:16:07.945Z,75.86
2022-12-02T04:21:14.182Z,75.18
2022-12-02T04:26:22.591Z,75.38
2022-12-02T04:31:28.855Z,75.74
2022-12-02T04:36:35.596Z,75.29
2022-12-02T04:41:43.510Z,75.34
2022-12-02T04:46:49.945Z,75.96
2022-12-02T04:51:56.358Z,76.02
2022-12-02T04:57:03.926Z,75.77
2022-12-02T05:02:09.996Z,76.03
2022-12-02T05:07:16.430Z,76.15
2022-12-02T05:12:24.509Z,76.01
2022-12-02T05:17:31.599Z,76.03
2022-12-02T05:22:39.063Z,76.01
2022-12-02T05:27:46.697Z,76.02
2022-12-02T05:32:53.055Z,76.04
2022-12-02T05:38:04.588Z,76.00
2022-12-02T05:43:22.024Z,75.93
2022-12-02T05:48:36.731Z,75.99
2022-12-02T05:53:45.254Z,75.98
2022-12-02T05:58:52.934Z,76.21
2022-12-02T06:04:00.061Z,76.15
2022-12-02T06:09:15.440Z,76.50
2022-12-02T06:14:26.014Z,76.52
2022-12-02T06:19:42.209Z,76.73
2022-12-02T06:24:48.823Z,76.64
2022-12-02T06:30:03.319Z,76.33
2022-12-02T06:35:25.002Z,76.36
2022-12-02T06:40:34.210Z,76.37
2022-12-02T06:45:43.141Z,76.10
2022-12-02T06:50:50.998Z,76.22
2022-12-02T06:56:03.114Z,76.25
2022-12-02T07:01:30.421Z,75.67
2022-12-02T07:06:40.500Z,75.34
2022-12-02T07:11:53.705Z,75.36
2022-12-02T07:17:04.454Z,75.40
2022-12-02T07:22:18.241Z,75.28
2022-12-02T07:27:28.017Z,74.88
2022-12-02T07:32:35.509Z,75.21
2022-12-02T07:37:41.576Z,75.56
2022-12-02T07:42:48.245Z,75.08
2022-12-02T07:47:55.831Z,75.05
2022-12-02T07:53:02.485Z,75.44
2022-12-02T07:58:09.327Z,75.25
2022-12-02T08:03:16.929Z,75.02
2022-12-02T08:08:24.108Z,75.15
2022-12-02T08:13:30.211Z,75.49
2022-12-02T08:18:37.667Z,75.22
2022-12-02T08:23:43.609Z,75.49
2022-12-02T08:28:53.921Z,75.60
2022-12-02T08:34:06.808Z,75.45
2022-12-02T08:39:13.155Z,75.59
2022-12-02T08:44:19.460Z,76.13
2022-12-02T08:49:27.877Z,76.10
2022-12-02T08:54:34.086Z,76.08
2022-12-02T08:59:40.081Z,75.84
2022-12-02T09:04:47.491Z,75.50
2022-12-02T09:09:53.596Z,75.67
2022-12-02T09:14:59.744Z,75.69
2022-12-02T09:20:08.773Z,76.04
2022-12-02T09:25:16.073Z,76.11
2022-12-02T09:30:22.620Z,76.28
2022-12-02T09:35:30.481Z,76.14
2022-12-02T09:40:37.623Z,75.84
2022-12-02T09:45:45.028Z,76.08
2022-12-02T09:50:52.997Z,76.05
2022-12-02T09:55:59.764Z,75.96
2022-12-02T10:01:10.352Z,76.37
2022-12-02T10:06:23.537Z,76.34
2022-12-02T10:11:32.974Z,76.78
2022-12-02T10:16:40.719Z,76.62
2022-12-02T10:21:53.526Z,76.98
2022-12-02T10:27:01.510Z,76.95
2022-12-02T10:32:22.091Z,76.91
2022-12-02T10:37:33.969Z,76.83
2022-12-02T10:42:40.304Z,76.25
2022-12-02T10:47:47.634Z,77.51
2022-12-02T10:53:00.358Z,76.43
2022-12-02T10:58:06.688Z,76.50
2022-12-02T11:03:12.881Z,76.72
2022-12-02T11:08:24.592Z,76.44
2022-12-02T11:13:54.057Z,76.70
2022-12-02T11:19:06.352Z,76.77
2022-12-02T11:24:39.471Z,76.82
2022-12-02T11:30:24.736Z,77.08
2022-12-02T11:36:13.692Z,76.87
2022-12-02T11:41:23.288Z,77.13
2022-12-02T11:46:49.957Z,76.96
2022-12-02T11:52:21.067Z,77.41
2022-12-02T11:57:32.654Z,77.12
2022-12-02T12:02:38.939Z,77.29
2022-12-02T12:07:48.137Z,77.30
2022-12-02T12:13:22.704Z,77.32
2022-12-02T12:18:48.199Z,77.94
2022-12-02T12:23:54.150Z,77.83
2022-12-02T12:29:06.818Z,77.85
2022-12-02T12:34:13.804Z,78.16
2022-12-02T12:39:21.671Z,78.19
2022-12-02T12:44:31.219Z,78.08
2022-12-02T12:49:38.094Z,77.89
2022-12-02T12:54:50.789Z,77.68
2022-12-02T12:59:58.799Z,77.68
2022-12-02T13:05:05.461Z,77.89
2022-12-02T13:10:13.556Z,78.28
2022-12-02T13:15:21.982Z,77.91
2022-12-02T13:20:28.772Z,77.95
2022-12-02T13:25:35.304Z,77.82
2022-12-02T13:30:43.243Z,78.39
2022-12-02T13:35:49.605Z,78.36
2022-12-02T13:40:56.132Z,78.18
2022-12-02T13:46:04.382Z,78.12
2022-12-02T13:51:10.988Z,78.52
2022-12-02T13:56:17.370Z,78.70
2022-12-02T14:01:25.805Z,78.27
2022-12-02T14:06:32.530Z,78.87
2022-12-02T14:11:39.034Z,78.84
2022-12-02T14:16:47.824Z,79.24
2022-12-02T14:21:54.099Z,78.68
2022-12-02T14:27:00.772Z,79.15
2022-12-02T14:32:09.262Z,79.48
2022-12-02T14:37:17.364Z,79.41
2022-12-02T14:42:23.796Z,79.33
2022-12-02T14:47:31.898Z,79.53
2022-12-02T14:52:38.349Z,79.67
2022-12-02T14:57:44.764Z,79.64
2022-12-02T15:02:52.718Z,79.94
2022-12-02T15:07:59.195Z,80.14
2022-12-02T15:13:05.809Z,79.86
2022-12-02T15:18:13.854Z,79.74
2022-12-02T15:23:20.758Z,80.06
2022-12-02T15:28:27.636Z,79.82
2022-12-02T15:33:35.844Z,79.39
2022-12-02T15:38:43.178Z,79.84
2022-12-02T15:43:53.555Z,80.06
2022-12-02T15:49:02.535Z,80.57
2022-12-02T15:54:09.204Z,80.57
2022-12-02T15:59:17.004Z,80.80
2022-12-02T16:04:25.056Z,80.92
2022-12-02T16:09:32.454Z,81.34
2022-12-02T16:14:39.285Z,81.20
2022-12-02T16:19:47.582Z,81.77
2022-12-02T16:24:54.803Z,81.85
2022-12-02T16:30:01.926Z,81.64
2022-12-02T16:35:12.161Z,81.61
2022-12-02T16:40:19.580Z,81.64
2022-12-02T16:45:26.856Z,82.26
2022-12-02T16:50:35.290Z,81.83
2022-12-02T16:55:41.458Z,82.09
2022-12-02T17:00:48.480Z,82.33
2022-12-02T17:05:56.248Z,81.95
2022-12-02T17:11:03.220Z,82.27
2022-12-02T17:16:11.902Z,82.48
2022-12-02T17:21:20.105Z,82.82
2022-12-02T17:26:26.289Z,83.01
2022-12-02T17:31:35.091Z,83.22
2022-12-02T17:36:43.622Z,83.00
2022-12-02T17:41:50.585Z,82.73
2022-12-02T17:46:58.700Z,82.73
2022-12-02T17:52:19.763Z,83.22
2022-12-02T17:57:27.962Z,82.98
2022-12-02T18:02:36.122Z,83.20
2022-12-02T18:07:44.364Z,82.96
2022-12-02T18:12:51.244Z,83.76
2022-12-02T18:17:58.191Z,83.92
2022-12-02T18:23:07.660Z,83.51
2022-12-02T18:28:14.145Z,82.94
2022-12-02T18:33:20.677Z,83.33
2022-12-02T18:38:29.635Z,83.98
2022-12-02T18:43:39.264Z,84.74
2022-12-02T18:48:46.922Z,84.94
2022-12-02T18:54:09.609Z,85.03
2022-12-02T18:59:17.883Z,85.09
2022-12-02T19:04:26.077Z,85.54
2022-12-02T19:09:34.652Z,85.73
2022-12-02T19:14:47.819Z,85.43
2022-12-02T19:19:54.862Z,85.38
2022-12-02T19:25:04.794Z,85.42
2022-12-02T19:30:14.157Z,85.15
2022-12-02T19:35:23.102Z,85.18
2022-12-02T19:40:42.773Z,85.04
2022-12-02T19:45:51.960Z,84.61
2022-12-02T19:50:59.444Z,84.50
2022-12-02T19:56:09.804Z,84.90
2022-12-02T20:01:16.473Z,84.94
2022-12-02T20:06:25.037Z,85.48
2022-12-02T20:11:33.852Z,85.49
2022-12-02T20:16:40.615Z,85.64
2022-12-02T20:21:48.222Z,86.33
2022-12-02T20:26:57.633Z,86.47
2022-12-02T20:32:11.192Z,86.30
2022-12-02T20:37:18.499Z,86.37
2022-12-02T20:42:28.401Z,86.50
2022-12-02T20:47:36.636Z,86.61
2022-12-02T20:52:49.624Z,86.86
2022-12-02T20:58:00.589Z,86.64
2022-12-02T21:03:08.439Z,86.91
2022-12-02T21:08:18.729Z,86.97
2022-12-02T21:13:28.889Z,86.91
2022-12-02T21:18:38.291Z,86.97
2022-12-02T21:23:47.713Z,87.01
2022-12-02T21:28:57.857Z,87.57
2022-12-02T21:34:05.366Z,87.40
2022-12-02T21:39:12.476Z,87.69
2022-12-02T21:44:23.196Z,88.00
2022-12-02T21:49:30.334Z,87.77
2022-12-02T21:54:37.519Z,88.00
2022-12-02T21:59:46.441Z,88.11
2022-12-02T22:04:53.594Z,88.15
2022-12-02T22:10:00.336Z,88.23
2022-12-02T22:15:10.825Z,88.13
2022-12-02T22:20:19.801Z,88.15
2022-12-02T22:25:26.623Z,88.11
2022-12-02T22:30:34.612Z,87.78
2022-12-02T22:35:41.271Z,88.01
2022-12-02T22:40:48.667Z,87.94
2022-12-02T22:45:56.835Z,88.11
2022-12-02T22:51:03.493Z,87.93
2022-12-02T22:56:10.052Z,88.03
2022-12-02T23:01:17.995Z,88.39
2022-12-02T23:06:24.597Z,87.88
2022-12-02T23:11:30.891Z,88.01
2022-12-02T23:16:38.631Z,88.38
2022-12-02T23:21:44.898Z,88.17
2022-12-02T23:26:52.432Z,88.22
2022-12-02T23:32:00.693Z,88.05
2022-12-02T23:37:07.049Z,87.56
2022-12-02T23:42:15.338Z,87.85
2022-12-02T23:47:23.018Z,87.77
2022-12-02T23:52:29.557Z,87.51
2022-12-02T23:57:35.828Z,87.72
